createdAt,value
2019-03-03T00:02:15.596Z,3.64
2019-03-03T00:04:43.238Z,3.47
2019-03-03T00:07:10.822Z,3.38
2019-03-03T00:09:38.489Z,3.42
2019-03-03T00:12:07.003Z,3.58
2019-03-03T00:14:34.604Z,3.68
2019-03-03T00:17:02.269Z,3.75
2019-03-03T00:19:29.872Z,3.58
2019-03-03T00:21:57.469Z,3.59
2019-03-03T00:24:26.877Z,3.65
2019-03-03T00:26:54.448Z,3.57
2019-03-03T00:29:22.040Z,3.65
2019-03-03T00:31:49.672Z,3.71
2019-03-03T00:34:17.244Z,3.76
2019-03-03T00:37:13.235Z,3.89
2019-03-03T00:40:06.169Z,4.06
2019-03-03T00:42:53.262Z,4.14
2019-03-03T00:45:49.376Z,4.04
2019-03-03T00:48:42.783Z,3.84
2019-03-03T00:51:28.489Z,3.99
2019-03-03T00:54:05.990Z,4.13
2019-03-03T00:56:58.725Z,4.16
2019-03-03T00:59:46.637Z,4.24
2019-03-03T01:02:48.866Z,4.26
2019-03-03T01:05:24.465Z,4.22
2019-03-03T01:08:15.160Z,4.28
2019-03-03T01:11:08.299Z,4.27
2019-03-03T01:14:04.406Z,4.28
2019-03-03T01:16:48.299Z,4.13
2019-03-03T01:19:38.027Z,4.13
2019-03-03T01:22:27.665Z,4.20
2019-03-03T01:24:57.816Z,4.26
2019-03-03T01:27:26.078Z,4.27
2019-03-03T01:29:53.918Z,4.27
2019-03-03T01:32:21.490Z,4.26
2019-03-03T01:34:49.138Z,4.30
2019-03-03T01:37:16.808Z,4.14
2019-03-03T01:39:44.479Z,4.11
2019-03-03T01:42:12.038Z,4.24
2019-03-03T01:44:39.652Z,4.24
2019-03-03T01:47:07.616Z,4.32
2019-03-03T01:49:35.242Z,4.29
2019-03-03T01:52:03.020Z,4.26
2019-03-03T01:54:30.641Z,4.26
2019-03-03T01:56:58.211Z,4.22
2019-03-03T01:59:25.906Z,4.21
2019-03-03T02:01:55.267Z,4.18
2019-03-03T02:04:22.822Z,4.16
2019-03-03T02:06:50.470Z,4.12
2019-03-03T02:09:18.304Z,4.03
2019-03-03T02:11:45.938Z,4.01
2019-03-03T02:14:13.528Z,4.03
2019-03-03T02:16:41.087Z,4.00
2019-03-03T02:19:08.721Z,4.01
2019-03-03T02:21:36.261Z,3.99
2019-03-03T02:24:03.979Z,3.94
2019-03-03T02:26:31.657Z,3.92
2019-03-03T02:28:59.331Z,3.94
2019-03-03T02:31:26.999Z,3.93
2019-03-03T02:33:54.644Z,3.89
2019-03-03T02:36:22.271Z,3.89
2019-03-03T02:38:49.832Z,3.88
2019-03-03T02:41:18.377Z,3.87
2019-03-03T02:43:45.950Z,3.84
2019-03-03T02:46:13.535Z,3.79
2019-03-03T02:48:41.099Z,3.86
2019-03-03T02:51:08.787Z,3.79
2019-03-03T02:53:36.458Z,3.78
2019-03-03T02:56:04.159Z,3.77
2019-03-03T02:58:31.972Z,3.75
2019-03-03T03:01:34.433Z,3.74
2019-03-03T03:04:01.997Z,3.68
2019-03-03T03:06:47.826Z,3.65
2019-03-03T03:09:21.033Z,3.67
2019-03-03T03:11:58.982Z,3.68
2019-03-03T03:14:46.137Z,3.73
2019-03-03T03:17:36.039Z,3.73
2019-03-03T03:20:26.045Z,3.72
2019-03-03T03:23:15.804Z,3.69
2019-03-03T03:26:05.549Z,3.70
2019-03-03T03:28:55.480Z,3.56
2019-03-03T03:31:29.203Z,3.55
2019-03-03T03:34:03.345Z,3.57
2019-03-03T03:36:44.200Z,3.49
2019-03-03T03:39:23.939Z,3.37
2019-03-03T03:42:11.415Z,3.39
2019-03-03T03:45:07.499Z,2.91
2019-03-03T03:47:57.249Z,2.81
2019-03-03T03:50:43.739Z,2.81
2019-03-03T03:53:29.731Z,2.77
2019-03-03T03:56:19.408Z,2.77
2019-03-03T03:59:05.242Z,2.94
2019-03-03T04:01:52.317Z,3.09
2019-03-03T04:04:33.206Z,3.10
2019-03-03T04:07:23.879Z,3.09
2019-03-03T04:10:11.011Z,3.08
2019-03-03T04:12:54.480Z,3.10
2019-03-03T04:15:41.624Z,3.12
2019-03-03T04:18:22.676Z,3.16
2019-03-03T04:21:08.562Z,3.10
2019-03-03T04:23:58.456Z,3.17
2019-03-03T04:26:48.346Z,3.12
2019-03-03T04:29:44.329Z,3.08
2019-03-03T04:32:31.459Z,3.05
2019-03-03T04:35:24.492Z,2.89
2019-03-03T04:38:10.463Z,2.71
2019-03-03T04:41:01.156Z,2.69
2019-03-03T04:43:40.574Z,2.83
2019-03-03T04:46:30.349Z,2.92
2019-03-03T04:49:20.437Z,3.04
2019-03-03T04:52:16.684Z,3.02
2019-03-03T04:55:12.509Z,2.96
2019-03-03T04:57:47.169Z,2.94
2019-03-03T05:00:34.390Z,2.91
2019-03-03T05:03:20.078Z,2.79
2019-03-03T05:06:15.956Z,2.87
2019-03-03T05:09:12.259Z,2.93
2019-03-03T05:12:39.783Z,2.86
2019-03-03T05:15:33.231Z,2.78
2019-03-03T05:18:07.427Z,2.90
2019-03-03T05:20:46.624Z,2.88
2019-03-03T05:23:17.048Z,2.83
2019-03-03T05:25:44.717Z,2.80
2019-03-03T05:28:12.239Z,2.80
2019-03-03T05:30:39.865Z,2.72
2019-03-03T05:33:07.408Z,2.76
2019-03-03T05:35:35.065Z,2.70
2019-03-03T05:38:02.582Z,2.62
2019-03-03T05:40:30.163Z,2.55
2019-03-03T05:42:57.747Z,2.51
2019-03-03T05:45:25.351Z,2.43
2019-03-03T05:47:52.898Z,2.46
2019-03-03T05:50:20.516Z,2.40
2019-03-03T05:52:48.066Z,2.34
2019-03-03T05:55:15.703Z,2.29
2019-03-03T05:57:43.279Z,2.31
2019-03-03T06:00:12.296Z,2.32
2019-03-03T06:02:39.864Z,2.33
2019-03-03T06:05:07.822Z,2.32
2019-03-03T06:07:35.334Z,2.33
2019-03-03T06:10:03.728Z,2.29
2019-03-03T06:12:31.297Z,2.35
2019-03-03T06:14:58.980Z,2.39
2019-03-03T06:17:26.518Z,2.44
2019-03-03T06:19:54.116Z,2.46
2019-03-03T06:22:21.741Z,2.38
2019-03-03T06:24:49.673Z,2.37
2019-03-03T06:27:19.063Z,2.39
2019-03-03T06:29:46.768Z,2.41
2019-03-03T06:32:14.382Z,2.42
2019-03-03T06:34:42.071Z,2.45
2019-03-03T06:37:09.780Z,2.50
2019-03-03T06:39:37.448Z,2.67
2019-03-03T06:42:05.087Z,2.88
2019-03-03T06:44:32.759Z,2.99
2019-03-03T06:47:00.470Z,3.08
2019-03-03T06:49:28.102Z,3.18
2019-03-03T06:51:58.764Z,3.29
2019-03-03T06:54:26.482Z,3.44
2019-03-03T06:56:54.112Z,3.54
2019-03-03T06:59:23.185Z,3.62
2019-03-03T07:01:50.722Z,3.80
2019-03-03T07:04:18.399Z,4.03
2019-03-03T07:06:45.928Z,4.21
2019-03-03T07:09:13.499Z,4.27
2019-03-03T07:11:41.031Z,4.49
2019-03-03T07:14:08.626Z,4.76
2019-03-03T07:16:36.178Z,5.03
2019-03-03T07:19:03.841Z,5.28
2019-03-03T07:21:31.414Z,5.67
2019-03-03T07:23:59.095Z,6.03
2019-03-03T07:26:26.795Z,6.48
2019-03-03T07:28:54.472Z,6.98
2019-03-03T07:31:22.207Z,7.29
2019-03-03T07:33:53.447Z,7.53
2019-03-03T07:36:22.884Z,7.97
2019-03-03T07:38:50.606Z,8.39
2019-03-03T07:41:18.422Z,8.76
2019-03-03T07:43:46.148Z,9.16
2019-03-03T07:46:13.818Z,9.48
2019-03-03T07:48:41.383Z,9.69
2019-03-03T07:51:09.224Z,9.87
2019-03-03T07:53:36.878Z,9.96
2019-03-03T07:56:04.556Z,10.09
2019-03-03T07:58:32.142Z,10.32
2019-03-03T08:00:59.825Z,10.47
2019-03-03T08:03:27.408Z,10.60
2019-03-03T08:05:55.128Z,10.60
2019-03-03T08:08:22.682Z,10.72
2019-03-03T08:10:50.408Z,10.88
2019-03-03T08:13:18.994Z,11.02
2019-03-03T08:15:46.743Z,11.13
2019-03-03T08:18:15.281Z,11.24
2019-03-03T08:20:42.971Z,11.31
2019-03-03T08:23:10.549Z,11.61
2019-03-03T08:25:39.202Z,11.95
2019-03-03T08:28:06.766Z,12.18
2019-03-03T08:30:34.493Z,12.21
2019-03-03T08:33:02.102Z,12.55
2019-03-03T08:35:29.755Z,12.58
2019-03-03T08:37:57.589Z,12.65
2019-03-03T08:40:25.271Z,12.84
2019-03-03T08:43:04.246Z,12.91
2019-03-03T08:45:49.990Z,13.07
2019-03-03T08:48:35.755Z,13.24
2019-03-03T08:51:15.245Z,13.32
2019-03-03T08:54:05.434Z,13.25
2019-03-03T08:56:45.435Z,13.50
2019-03-03T08:59:38.365Z,13.65
2019-03-03T09:02:23.810Z,13.58
2019-03-03T09:05:14.659Z,13.76
2019-03-03T09:08:20.133Z,13.73
2019-03-03T09:10:57.568Z,13.78
2019-03-03T09:13:37.435Z,13.77
2019-03-03T09:16:27.905Z,13.74
2019-03-03T09:19:24.136Z,13.81
2019-03-03T09:22:13.946Z,13.99
2019-03-03T09:24:57.290Z,14.22
2019-03-03T09:27:47.597Z,14.38
2019-03-03T09:30:33.479Z,14.53
2019-03-03T09:33:20.755Z,14.77
2019-03-03T09:36:08.213Z,15.14
2019-03-03T09:38:54.256Z,15.22
2019-03-03T09:41:50.677Z,15.32
2019-03-03T09:44:37.892Z,15.38
2019-03-03T09:47:19.836Z,15.63
2019-03-03T09:50:05.592Z,15.74
2019-03-03T09:52:40.466Z,15.84
2019-03-03T09:55:26.254Z,16.16
2019-03-03T09:58:07.255Z,16.28
2019-03-03T10:00:57.264Z,16.44
2019-03-03T10:03:32.063Z,16.34
2019-03-03T10:06:34.614Z,16.87
2019-03-03T10:09:40.037Z,16.99
2019-03-03T10:12:30.181Z,17.11
2019-03-03T10:15:12.755Z,17.26
2019-03-03T10:17:55.129Z,17.42
2019-03-03T10:20:48.230Z,17.23
2019-03-03T10:23:34.372Z,17.46
2019-03-03T10:26:24.987Z,17.83
2019-03-03T10:29:12.174Z,18.02
2019-03-03T10:31:57.760Z,18.10
2019-03-03T10:34:44.945Z,18.02
2019-03-03T10:37:35.079Z,18.15
2019-03-03T10:40:20.823Z,18.27
2019-03-03T10:42:59.973Z,18.34
2019-03-03T10:45:47.094Z,18.44
2019-03-03T10:48:43.343Z,18.68
2019-03-03T10:51:22.046Z,18.71
2019-03-03T10:54:07.602Z,18.60
2019-03-03T10:56:56.415Z,18.45
2019-03-03T10:59:43.610Z,18.58
2019-03-03T11:02:39.406Z,18.80
2019-03-03T11:05:23.978Z,19.06
2019-03-03T11:08:20.156Z,19.24
2019-03-03T11:11:25.445Z,19.37
2019-03-03T11:14:22.421Z,19.47
2019-03-03T11:17:08.010Z,19.55
2019-03-03T11:19:50.866Z,19.65
2019-03-03T11:22:40.764Z,19.64
2019-03-03T11:25:28.031Z,19.63
2019-03-03T11:28:12.039Z,19.62
2019-03-03T11:30:45.763Z,19.53
2019-03-03T11:33:33.241Z,19.66
2019-03-03T11:36:18.661Z,19.36
2019-03-03T11:38:54.864Z,19.51
2019-03-03T11:41:29.900Z,19.70
2019-03-03T11:44:15.934Z,19.53
2019-03-03T11:47:01.694Z,18.92
2019-03-03T11:49:47.745Z,18.66
2019-03-03T11:52:36.292Z,18.84
2019-03-03T11:55:29.890Z,18.94
2019-03-03T11:58:22.917Z,19.20
2019-03-03T12:01:13.088Z,19.30
2019-03-03T12:04:12.220Z,19.36
2019-03-03T12:07:08.818Z,19.54
2019-03-03T12:09:52.332Z,19.76
2019-03-03T12:12:42.362Z,19.78
2019-03-03T12:15:15.944Z,19.91
2019-03-03T12:18:03.193Z,19.99
2019-03-03T12:20:50.393Z,20.06
2019-03-03T12:23:36.219Z,20.39
2019-03-03T12:26:23.431Z,20.34
2019-03-03T12:29:19.255Z,20.60
2019-03-03T12:31:57.592Z,20.75
2019-03-03T12:34:40.967Z,21.00
2019-03-03T12:37:31.166Z,21.10
2019-03-03T12:40:16.792Z,21.41
2019-03-03T12:43:02.610Z,21.57
2019-03-03T12:45:48.273Z,21.64
2019-03-03T12:48:35.600Z,21.64
2019-03-03T12:51:23.021Z,21.67
2019-03-03T12:54:21.987Z,21.84
2019-03-03T12:57:01.353Z,21.54
2019-03-03T12:59:46.674Z,22.01
2019-03-03T13:02:25.452Z,22.29
2019-03-03T13:05:18.440Z,22.53
2019-03-03T13:07:52.329Z,22.62
2019-03-03T13:10:44.216Z,22.86
2019-03-03T13:13:19.240Z,22.66
2019-03-03T13:16:02.576Z,22.53
2019-03-03T13:19:02.055Z,22.43
2019-03-03T13:21:57.070Z,22.57
2019-03-03T13:24:50.566Z,22.82
2019-03-03T13:27:37.832Z,22.81
2019-03-03T13:30:31.275Z,22.91
2019-03-03T13:33:18.660Z,22.91
2019-03-03T13:36:06.290Z,23.01
2019-03-03T13:39:03.077Z,23.19
2019-03-03T13:41:57.981Z,23.13
2019-03-03T13:44:25.925Z,23.15
2019-03-03T13:46:54.505Z,23.08
2019-03-03T13:49:42.546Z,22.98
2019-03-03T13:52:38.940Z,23.01
2019-03-03T13:55:09.601Z,23.15
2019-03-03T13:57:37.350Z,23.15
2019-03-03T14:00:07.469Z,23.17
2019-03-03T14:02:35.123Z,23.39
2019-03-03T14:05:03.023Z,23.22
2019-03-03T14:07:32.118Z,23.24
2019-03-03T14:09:59.858Z,23.24
2019-03-03T14:12:27.634Z,23.81
2019-03-03T14:14:55.323Z,23.81
2019-03-03T14:17:23.080Z,24.12
2019-03-03T14:19:50.864Z,24.11
2019-03-03T14:22:18.581Z,24.09
2019-03-03T14:24:46.291Z,24.00
2019-03-03T14:27:17.820Z,24.04
2019-03-03T14:29:45.693Z,24.11
2019-03-03T14:32:13.501Z,23.41
2019-03-03T14:34:41.309Z,23.72
2019-03-03T14:37:09.555Z,23.60
2019-03-03T14:39:39.387Z,23.04
2019-03-03T14:42:06.995Z,22.84
2019-03-03T14:44:34.876Z,22.90
2019-03-03T14:47:02.648Z,22.79
2019-03-03T14:49:30.485Z,22.77
2019-03-03T14:51:58.208Z,22.66
2019-03-03T14:54:25.912Z,22.12
2019-03-03T14:56:56.075Z,21.91
2019-03-03T14:59:23.844Z,21.77
2019-03-03T15:01:51.529Z,21.34
2019-03-03T15:04:19.290Z,21.03
2019-03-03T15:06:46.983Z,20.85
2019-03-03T15:09:20.317Z,20.37
2019-03-03T15:11:48.057Z,19.87
2019-03-03T15:14:15.821Z,19.43
2019-03-03T15:16:43.374Z,19.15
2019-03-03T15:19:12.190Z,18.89
2019-03-03T15:21:42.694Z,18.94
2019-03-03T15:24:11.512Z,18.94
2019-03-03T15:26:39.216Z,18.68
2019-03-03T15:29:06.970Z,18.55
2019-03-03T15:31:37.643Z,18.45
2019-03-03T15:34:04.338Z,18.45
2019-03-03T15:36:32.108Z,18.21
2019-03-03T15:38:59.813Z,17.94
2019-03-03T15:41:27.539Z,17.99
2019-03-03T15:43:55.097Z,17.87
2019-03-03T15:46:22.778Z,18.05
2019-03-03T15:48:53.310Z,18.02
2019-03-03T15:51:21.065Z,18.00
2019-03-03T15:53:48.721Z,18.23
2019-03-03T15:56:16.419Z,18.39
2019-03-03T15:58:44.210Z,18.50
2019-03-03T16:01:14.462Z,18.56
2019-03-03T16:03:42.169Z,18.62
2019-03-03T16:06:09.836Z,18.72
2019-03-03T16:08:37.554Z,18.70
2019-03-03T16:11:05.121Z,18.53
2019-03-03T16:13:32.785Z,18.31
2019-03-03T16:16:00.348Z,18.16
2019-03-03T16:18:28.069Z,18.04
2019-03-03T16:20:55.611Z,18.03
2019-03-03T16:23:23.234Z,17.90
2019-03-03T16:25:50.824Z,17.83
2019-03-03T16:28:18.758Z,17.79
2019-03-03T16:30:46.331Z,17.69
2019-03-03T16:33:20.413Z,17.56
2019-03-03T16:35:46.555Z,17.45
2019-03-03T16:38:14.225Z,17.37
2019-03-03T16:40:41.768Z,17.23
2019-03-03T16:43:09.423Z,16.95
2019-03-03T16:45:36.995Z,16.71
2019-03-03T16:48:04.648Z,16.56
2019-03-03T16:50:34.502Z,16.49
2019-03-03T16:53:02.195Z,16.38
2019-03-03T16:55:29.802Z,16.25
2019-03-03T16:57:57.420Z,16.13
2019-03-03T17:00:25.140Z,15.99
2019-03-03T17:02:52.796Z,15.85
2019-03-03T17:05:20.675Z,15.82
2019-03-03T17:07:48.309Z,15.76
2019-03-03T17:10:15.857Z,15.68
2019-03-03T17:12:43.658Z,15.63
2019-03-03T17:15:13.888Z,15.26
2019-03-03T17:17:41.641Z,14.89
2019-03-03T17:20:09.500Z,14.53
2019-03-03T17:22:37.235Z,14.18
2019-03-03T17:25:08.095Z,13.85
2019-03-03T17:27:35.903Z,13.47
2019-03-03T17:30:04.779Z,13.07
2019-03-03T17:32:32.537Z,12.91
2019-03-03T17:35:00.313Z,12.53
2019-03-03T17:37:28.227Z,12.51
2019-03-03T17:39:56.012Z,12.52
2019-03-03T17:42:24.144Z,12.47
2019-03-03T17:44:51.935Z,12.47
2019-03-03T17:47:19.721Z,12.49
2019-03-03T17:49:47.457Z,12.39
2019-03-03T17:52:15.204Z,12.30
2019-03-03T17:54:42.861Z,12.30
2019-03-03T17:57:10.483Z,12.14
2019-03-03T17:59:38.190Z,12.07
2019-03-03T18:02:05.962Z,12.01
2019-03-03T18:04:35.431Z,12.04
2019-03-03T18:07:03.092Z,12.12
2019-03-03T18:09:30.788Z,11.89
2019-03-03T18:11:59.719Z,11.74
2019-03-03T18:14:27.446Z,11.57
2019-03-03T18:16:55.079Z,11.43
2019-03-03T18:19:22.827Z,11.29
2019-03-03T18:21:50.510Z,11.20
2019-03-03T18:24:18.161Z,11.06
2019-03-03T18:26:45.796Z,10.96
2019-03-03T18:29:13.520Z,10.80
2019-03-03T18:31:41.231Z,10.39
2019-03-03T18:34:08.986Z,10.37
2019-03-03T18:36:36.683Z,10.36
2019-03-03T18:39:06.727Z,10.45
2019-03-03T18:41:36.266Z,10.43
2019-03-03T18:44:04.014Z,10.47
2019-03-03T18:46:31.745Z,10.38
2019-03-03T18:48:59.443Z,10.32
2019-03-03T18:51:27.064Z,10.24
2019-03-03T18:53:54.739Z,10.15
2019-03-03T18:56:22.775Z,10.10
2019-03-03T18:58:50.501Z,10.07
2019-03-03T19:01:18.237Z,9.94
2019-03-03T19:03:46.027Z,9.88
2019-03-03T19:06:13.722Z,9.65
2019-03-03T19:08:41.414Z,9.72
2019-03-03T19:11:09.081Z,9.62
2019-03-03T19:13:36.645Z,9.55
2019-03-03T19:16:04.406Z,9.57
2019-03-03T19:18:31.977Z,9.56
2019-03-03T19:20:59.634Z,9.51
2019-03-03T19:23:27.161Z,9.40
2019-03-03T19:25:54.781Z,9.37
2019-03-03T19:28:22.360Z,9.35
2019-03-03T19:30:49.983Z,9.20
2019-03-03T19:33:21.513Z,9.15
2019-03-03T19:35:49.188Z,9.11
2019-03-03T19:38:17.953Z,9.04
2019-03-03T19:40:45.570Z,8.94
2019-03-03T19:43:13.281Z,8.86
2019-03-03T19:45:40.847Z,8.75
2019-03-03T19:48:08.906Z,8.72
2019-03-03T19:50:36.487Z,8.68
2019-03-03T19:53:06.122Z,8.68
2019-03-03T19:55:33.747Z,8.66
2019-03-03T19:58:01.491Z,8.63
2019-03-03T20:00:35.418Z,8.55
2019-03-03T20:03:02.164Z,8.55
2019-03-03T20:05:29.896Z,8.54
2019-03-03T20:07:57.654Z,8.50
2019-03-03T20:10:25.435Z,8.48
2019-03-03T20:12:56.082Z,8.42
2019-03-03T20:15:23.842Z,8.41
2019-03-03T20:17:51.556Z,8.40
2019-03-03T20:20:19.375Z,8.25
2019-03-03T20:22:46.972Z,8.23
2019-03-03T20:25:14.741Z,8.22
2019-03-03T20:27:42.569Z,8.24
2019-03-03T20:30:12.819Z,8.20
2019-03-03T20:32:40.465Z,8.07
2019-03-03T20:35:08.795Z,8.13
2019-03-03T20:37:36.577Z,8.02
2019-03-03T20:40:05.700Z,8.05
2019-03-03T20:42:33.418Z,8.03
2019-03-03T20:45:01.058Z,7.99
2019-03-03T20:47:28.772Z,7.87
2019-03-03T20:49:56.446Z,7.87
2019-03-03T20:52:24.153Z,7.79
2019-03-03T20:54:51.773Z,7.82
2019-03-03T20:57:19.546Z,7.78
2019-03-03T20:59:47.097Z,7.72
2019-03-03T21:02:14.832Z,7.72
2019-03-03T21:04:42.603Z,7.73
2019-03-03T21:07:10.307Z,7.69
2019-03-03T21:09:37.942Z,7.62
2019-03-03T21:12:05.583Z,7.64
2019-03-03T21:14:33.241Z,7.58
2019-03-03T21:17:00.942Z,7.53
2019-03-03T21:19:28.676Z,7.50
2019-03-03T21:21:56.450Z,7.45
2019-03-03T21:24:24.325Z,7.37
2019-03-03T21:26:51.945Z,7.40
2019-03-03T21:29:20.001Z,7.42
2019-03-03T21:31:50.145Z,7.39
2019-03-03T21:34:17.802Z,7.43
2019-03-03T21:36:45.583Z,7.40
2019-03-03T21:39:13.478Z,7.41
2019-03-03T21:41:41.394Z,7.44
2019-03-03T21:44:09.095Z,7.49
2019-03-03T21:46:36.600Z,7.45
2019-03-03T21:49:04.174Z,7.36
2019-03-03T21:51:31.843Z,7.39
2019-03-03T21:53:59.504Z,7.38
2019-03-03T21:56:28.599Z,7.37
2019-03-03T21:58:56.278Z,7.26
2019-03-03T22:01:23.980Z,7.14
2019-03-03T22:03:51.576Z,7.24
2019-03-03T22:06:19.262Z,7.34
2019-03-03T22:08:46.910Z,7.37
2019-03-03T22:11:14.546Z,7.42
2019-03-03T22:13:42.226Z,7.40
2019-03-03T22:16:09.889Z,7.37
2019-03-03T22:18:37.555Z,7.29
2019-03-03T22:21:06.148Z,7.32
2019-03-03T22:23:33.828Z,7.37
2019-03-03T22:26:01.398Z,7.38
2019-03-03T22:28:29.029Z,7.37
2019-03-03T22:30:56.581Z,7.35
2019-03-03T22:33:24.186Z,7.36
2019-03-03T22:35:51.785Z,7.36
2019-03-03T22:38:21.205Z,7.32
2019-03-03T22:40:48.883Z,7.22
2019-03-03T22:43:16.461Z,7.23
2019-03-03T22:45:44.038Z,7.27
2019-03-03T22:48:11.662Z,7.27
2019-03-03T22:50:39.199Z,7.10
2019-03-03T22:53:06.811Z,7.22
2019-03-03T22:55:35.819Z,7.28
2019-03-03T22:58:03.385Z,7.29
2019-03-03T23:01:00.596Z,7.38
2019-03-03T23:03:35.121Z,7.38
2019-03-03T23:06:10.666Z,7.33
2019-03-03T23:08:49.576Z,7.31
2019-03-03T23:12:04.989Z,7.19
2019-03-03T23:14:58.644Z,7.18
2019-03-03T23:17:58.909Z,7.44
2019-03-03T23:21:01.861Z,7.55
2019-03-03T23:24:23.318Z,7.61
2019-03-03T23:26:50.877Z,7.63
2019-03-03T23:29:18.441Z,7.68
2019-03-03T23:31:46.067Z,7.74
2019-03-03T23:34:13.758Z,7.74
2019-03-03T23:36:41.314Z,7.64
2019-03-03T23:39:09.182Z,7.71
2019-03-03T23:41:36.735Z,7.72
2019-03-03T23:44:04.348Z,7.64
2019-03-03T23:46:31.946Z,7.51
2019-03-03T23:48:59.632Z,7.66
2019-03-03T23:51:27.171Z,7.62
2019-03-03T23:53:54.785Z,7.47
2019-03-03T23:56:22.370Z,7.48
2019-03-03T23:58:50.011Z,7.32
